Time,TemperatureF,DewpointF,PressureIn,WindDirection,WindDirectionDegrees,WindSpeedMPH,WindSpeedGustMPH,Humidity,HourlyPrecipIn,Conditions,Clouds,dailyrainin,SoftwareType,DateUTC
2013-03-05 00:00:00,22.0,-99.9,44.89,North,-999,-999.0,-999.0,-999,-99.99,,,-99.99,,2013-03-05 07:00:00,
2013-03-05 00:52:00,22.0,-99.9,44.89,North,-999,-999.0,-999.0,-999,-99.99,,,-99.99,,2013-03-05 07:52:00,
2013-03-05 01:00:00,20.0,-99.9,-100.00,West,267,1.0,2.0,-999,-99.99,,,-99.99,,2013-03-05 08:00:00,
2013-03-05 01:52:00,20.0,-99.9,-100.00,West,267,1.0,2.0,-999,-99.99,,,-99.99,,2013-03-05 08:52:00,
2013-03-05 02:00:00,19.0,-99.9,44.89,West,267,1.0,3.0,-999,-99.99,,,-99.99,,2013-03-05 09:00:00,
2013-03-05 02:52:00,19.0,-99.9,44.89,West,267,1.0,3.0,-999,-99.99,,,-99.99,,2013-03-05 09:52:00,
2013-03-05 03:00:00,19.0,-99.9,-100.00,West,267,1.0,3.0,-999,-99.99,,,-99.99,,2013-03-05 10:00:00,
2013-03-05 04:00:00,17.0,-99.9,-100.00,West,266,1.0,2.0,-999,-99.99,,,-99.99,,2013-03-05 11:00:00,
2013-03-05 04:52:00,17.0,-99.9,-100.00,West,266,1.0,2.0,-999,-99.99,,,-99.99,,2013-03-05 11:52:00,
2013-03-05 05:00:00,17.0,-99.9,-100.00,West,270,1.0,2.0,-999,-99.99,,,-99.99,,2013-03-05 12:00:00,
2013-03-05 05:53:00,17.0,-99.9,-100.00,West,270,1.0,2.0,-999,-99.99,,,-99.99,,2013-03-05 12:53:00,
2013-03-05 06:00:00,16.0,-99.9,-100.00,West,269,1.0,3.0,-999,-99.99,,,-99.99,,2013-03-05 13:00:00,
2013-03-05 06:52:00,16.0,-99.9,-100.00,West,269,1.0,3.0,-999,-99.99,,,-99.99,,2013-03-05 13:52:00,
2013-03-05 07:00:00,15.0,-99.9,-100.00,North,-999,-999.0,-999.0,-999,-99.99,,,-99.99,,2013-03-05 14:00:00,
2013-03-05 07:52:00,15.0,-99.9,-100.00,North,-999,-999.0,-999.0,-999,-99.99,,,-99.99,,2013-03-05 14:52:00,
2013-03-05 08:00:00,23.0,-99.9,-100.00,West,265,1.0,2.0,-999,-99.99,,,-99.99,,2013-03-05 15:00:00,
2013-03-05 08:52:00,23.0,-99.9,-100.00,West,265,1.0,2.0,-999,-99.99,,,-99.99,,2013-03-05 15:52:00,
2013-03-05 09:00:00,30.0,-99.9,-100.00,SW,225,1.0,3.0,-999,-99.99,,,-99.99,,2013-03-05 16:00:00,
2013-03-05 09:52:00,30.0,-99.9,-100.00,SW,225,1.0,3.0,-999,-99.99,,,-99.99,,2013-03-05 16:52:00,
2013-03-05 13:00:00,43.0,-99.9,-100.00,NE,39,2.0,7.0,-999,-99.99,,,0.00,,2013-03-05 20:00:00,
2013-03-05 13:52:00,43.0,-99.9,-100.00,NE,39,2.0,7.0,-999,-99.99,,,0.00,,2013-03-05 20:52:00,
2013-03-05 14:00:00,45.0,-99.9,-100.00,North,-999,-999.0,-999.0,-999,-99.99,,,0.00,,2013-03-05 21:00:00,
2013-03-05 14:53:00,45.0,-99.9,-100.00,North,-999,-999.0,-999.0,-999,-99.99,,,0.00,,2013-03-05 21:53:00,
2013-03-05 15:00:00,42.0,-99.9,44.89,North,358,2.0,8.0,-999,-99.99,,,0.00,,2013-03-05 22:00:00,
2013-03-05 15:52:00,42.0,-99.9,44.89,North,358,2.0,8.0,-999,-99.99,,,0.00,,2013-03-05 22:52:00,
2013-03-05 17:00:00,37.0,-99.9,-100.00,NW,321,2.0,7.0,-999,-99.99,,,0.00,,2013-03-06 00:00:00,
2013-03-05 17:52:00,37.0,-99.9,-100.00,NW,321,2.0,7.0,-999,-99.99,,,0.00,,2013-03-06 00:52:00,
2013-03-05 18:00:00,34.0,-99.9,-100.00,WNW,295,2.0,7.0,-999,-99.99,,,0.00,,2013-03-06 01:00:00,
2013-03-05 18:52:00,34.0,-99.9,-100.00,WNW,295,2.0,7.0,-999,-99.99,,,0.00,,2013-03-06 01:52:00,
2013-03-05 19:00:00,33.0,-99.9,-100.00,WNW,287,2.0,7.0,-999,-99.99,,,0.00,,2013-03-06 02:00:00,
2013-03-05 19:52:00,33.0,-99.9,-100.00,WNW,287,2.0,7.0,-999,-99.99,,,0.00,,2013-03-06 02:52:00,
2013-03-05 20:00:00,33.0,-99.9,-100.00,West,276,2.0,8.0,-999,-99.99,,,0.00,,2013-03-06 03:00:00,
2013-03-05 21:00:00,34.0,-99.9,-100.00,West,281,4.0,12.0,-999,-99.99,,,0.00,,2013-03-06 04:00:00,
2013-03-05 21:52:00,34.0,-99.9,-100.00,West,281,4.0,12.0,-999,-99.99,,,0.00,,2013-03-06 04:52:00,
2013-03-05 22:00:00,35.0,-99.9,-100.00,WNW,291,4.0,13.0,-999,-99.99,,,0.00,,2013-03-06 05:00:00,
2013-03-05 22:52:00,35.0,-99.9,-100.00,WNW,291,4.0,13.0,-999,-99.99,,,0.00,,2013-03-06 05:52:00,
2013-03-05 23:00:00,35.0,-99.9,-100.00,WNW,290,5.0,14.0,-999,-99.99,,,0.01,,2013-03-06 06:00:00,
2013-03-05 23:52:00,35.0,-99.9,-100.00,WNW,290,5.0,14.0,-999,-99.99,,,0.01,,2013-03-06 06:52:00,